PAMB

Manokotak Airport

Airport
ICAO code
PAMB
Summary
ICAO Region
NAM
ICAO Territory
Location

Manokotak,

Coordinates
58° 59' 20" N , 159° 2' 60" W
KCC
Airport BS
Bird Strike
Non Avian Wildlife Hazards to Aircraft
Airport CFIT
Altimeter Temperature Error Correction
Metar
PAMB 161356Z AUTO 14009KT 8SM 01/M01 A3016 RMK AO2 SLP217 T00061011 FZRANO $

Description

Regional airport serving Manokotak, Alaska.

Climatology

Subarctic climate (Köppen climate classification Dfc) - long, usually very cold winters, and short, cool to mild summers.

Runways

Designator Length Width Surface Rops
3/21 1006 23 GRVL-G No/No

Airport map

Aerial View

SKYbrary Partners:

Safety knowledge contributed by: